createdAt,value
2019-05-11T00:04:06.650Z,99921.28
2019-05-11T00:09:09.120Z,99912.88
2019-05-11T00:14:11.595Z,99924.83
2019-05-11T00:19:14.043Z,99907.47
2019-05-11T00:24:16.522Z,99889.64
2019-05-11T00:29:18.980Z,99873.98
2019-05-11T00:34:21.440Z,99848.48
2019-05-11T00:39:23.904Z,99849.44
2019-05-11T00:44:26.374Z,99840.04
2019-05-11T00:49:28.848Z,99844.77
2019-05-11T00:54:31.318Z,99826.86
2019-05-11T00:59:33.825Z,99814.92
2019-05-11T01:04:36.284Z,99808.66
2019-05-11T01:09:38.684Z,99801.83
2019-05-11T01:14:41.150Z,99782.20
2019-05-11T01:19:43.615Z,99772.53
2019-05-11T01:24:46.148Z,99759.45
2019-05-11T01:29:48.622Z,99722.01
2019-05-11T01:34:51.082Z,99714.38
2019-05-11T01:39:53.560Z,99706.54
2019-05-11T01:44:56.040Z,99705.92
2019-05-11T01:49:58.498Z,99724.72
2019-05-11T01:55:00.966Z,99704.48
2019-05-11T02:00:03.462Z,99684.28
2019-05-11T02:05:23.857Z,99677.95
2019-05-11T02:10:26.309Z,99672.46
2019-05-11T02:15:28.791Z,99667.59
2019-05-11T02:20:31.269Z,99668.91
2019-05-11T02:25:33.699Z,99668.38
2019-05-11T02:30:36.162Z,99677.55
2019-05-11T02:35:38.625Z,99685.75
2019-05-11T02:40:41.078Z,99690.84
2019-05-11T02:45:43.533Z,99680.30
2019-05-11T02:50:46.004Z,99681.67
2019-05-11T02:55:48.496Z,99682.98
2019-05-11T03:00:50.940Z,99672.98
2019-05-11T03:05:53.394Z,99652.95
2019-05-11T03:10:55.849Z,99653.72
2019-05-11T03:15:58.309Z,99639.99
2019-05-11T03:21:00.777Z,99638.61
2019-05-11T03:26:03.251Z,99644.72
2019-05-11T03:31:05.719Z,99635.46
2019-05-11T03:36:08.179Z,99638.39
2019-05-11T03:41:10.665Z,99638.35
2019-05-11T03:46:13.122Z,99627.84
2019-05-11T03:51:15.585Z,99631.30
2019-05-11T03:56:18.040Z,99638.73
2019-05-11T04:01:20.636Z,99632.06
2019-05-11T04:06:23.122Z,99635.59
2019-05-11T04:11:25.601Z,99620.92
2019-05-11T04:16:28.055Z,99625.80
2019-05-11T04:21:30.634Z,99624.71
2019-05-11T04:26:33.092Z,99614.05
2019-05-11T04:31:35.560Z,99628.94
2019-05-11T04:36:38.028Z,99624.19
2019-05-11T04:41:40.509Z,99640.29
2019-05-11T04:46:42.971Z,99638.97
2019-05-11T04:51:45.409Z,99642.47
2019-05-11T04:56:47.869Z,99639.72
2019-05-11T05:01:50.349Z,99645.02
2019-05-11T05:06:59.903Z,99639.28
2019-05-11T05:11:55.265Z,99648.29
2019-05-11T05:16:57.735Z,99650.58
2019-05-11T05:22:00.198Z,99650.08
2019-05-11T05:27:02.665Z,99652.64
2019-05-11T05:32:05.125Z,99648.94
2019-05-11T05:37:07.578Z,99664.29
2019-05-11T05:42:10.123Z,99669.66
2019-05-11T05:47:12.591Z,99673.58
2019-05-11T05:52:15.045Z,99666.00
2019-05-11T05:57:17.503Z,99658.39
2019-05-11T06:02:20.066Z,99669.62
2019-05-11T06:07:22.556Z,99670.72
2019-05-11T06:12:25.005Z,99666.09
2019-05-11T06:17:27.478Z,99679.80
2019-05-11T06:22:29.950Z,99668.70
2019-05-11T06:27:32.419Z,99665.75
2019-05-11T06:32:34.885Z,99671.78
2019-05-11T06:37:37.428Z,99682.36
2019-05-11T06:42:39.876Z,99676.64
2019-05-11T06:47:42.365Z,99681.50
2019-05-11T06:52:44.822Z,99673.20
2019-05-11T06:57:47.281Z,99668.27
2019-05-11T07:02:49.750Z,99674.80
2019-05-11T07:07:52.213Z,99683.13
2019-05-11T07:12:54.701Z,99669.84
2019-05-11T07:17:57.180Z,99672.00
2019-05-11T07:22:59.696Z,99685.88
2019-05-11T07:28:02.421Z,99681.52
2019-05-11T07:33:04.650Z,99684.62
2019-05-11T07:38:08.346Z,99680.81
2019-05-11T07:43:10.081Z,99686.98
2019-05-11T07:48:12.277Z,99678.51
2019-05-11T07:53:14.660Z,99698.22
2019-05-11T07:58:20.234Z,99694.95
2019-05-11T08:03:19.575Z,99704.85
2019-05-11T08:08:25.087Z,99710.51
2019-05-11T08:13:24.526Z,99713.22
2019-05-11T08:18:28.234Z,99712.77
2019-05-11T08:23:29.476Z,99726.87
2019-05-11T08:28:31.912Z,99732.76
2019-05-11T08:33:34.398Z,99733.57
2019-05-11T08:38:37.801Z,99757.77
2019-05-11T08:43:39.381Z,99743.48
2019-05-11T08:48:41.844Z,99732.61
2019-05-11T08:53:44.323Z,99736.80
2019-05-11T08:58:49.042Z,99735.63
2019-05-11T09:03:49.357Z,99738.34
2019-05-11T09:08:51.832Z,99740.09
2019-05-11T09:13:54.298Z,99741.94
2019-05-11T09:18:58.119Z,99753.67
2019-05-11T09:23:59.293Z,99751.63
2019-05-11T09:29:01.815Z,99747.86
2019-05-11T09:34:04.296Z,99754.09
2019-05-11T09:39:08.379Z,99773.01
2019-05-11T09:44:09.268Z,99772.17
2019-05-11T09:49:12.037Z,99779.48
2019-05-11T09:54:14.410Z,99781.66
2019-05-11T09:59:17.894Z,99819.30
2019-05-11T10:04:19.346Z,99848.00
2019-05-11T10:09:21.816Z,99847.39
2019-05-11T10:14:24.275Z,99832.48
2019-05-11T10:19:28.445Z,99845.14
2019-05-11T10:24:29.213Z,99834.37
2019-05-11T10:29:33.871Z,99827.87
2019-05-11T10:34:34.251Z,99834.82
2019-05-11T10:39:38.291Z,99830.78
2019-05-11T10:44:39.178Z,99830.99
2019-05-11T10:49:41.642Z,99820.89
2019-05-11T10:54:44.108Z,99817.16
2019-05-11T10:59:48.723Z,99809.47
2019-05-11T11:04:49.033Z,99812.67
2019-05-11T11:09:51.490Z,99812.30
2019-05-11T11:14:54.037Z,99808.77
2019-05-11T11:19:58.079Z,99806.34
2019-05-11T11:24:59.140Z,99810.64
2019-05-11T11:30:01.432Z,99808.89
2019-05-11T11:35:03.915Z,99804.64
2019-05-11T11:40:08.369Z,99852.95
2019-05-11T11:45:08.850Z,99848.95
2019-05-11T11:50:11.326Z,99868.77
2019-05-11T11:55:13.813Z,99866.27
2019-05-11T12:00:18.283Z,99860.08
2019-05-11T12:05:18.745Z,99857.73
2019-05-11T12:10:21.246Z,99838.80
2019-05-11T12:15:23.716Z,99830.44
2019-05-11T12:20:28.487Z,99831.34
2019-05-11T12:25:28.677Z,99833.38
2019-05-11T12:30:31.133Z,99840.02
2019-05-11T12:35:33.617Z,99861.38
2019-05-11T12:40:36.081Z,99921.40
2019-05-11T12:45:38.564Z,99943.86
2019-05-11T12:50:41.048Z,99938.42
2019-05-11T12:55:43.536Z,99931.41
2019-05-11T13:00:47.936Z,99953.77
2019-05-11T13:05:48.671Z,99954.09
2019-05-11T13:10:50.972Z,99949.81
2019-05-11T13:15:53.473Z,99952.78
2019-05-11T13:20:55.931Z,99944.30
2019-05-11T13:25:58.667Z,99954.98
2019-05-11T13:31:00.900Z,99968.88
2019-05-11T13:36:03.388Z,99969.63
2019-05-11T13:41:07.834Z,99967.95
2019-05-11T13:46:08.770Z,99986.42
2019-05-11T13:51:10.816Z,100000.44
2019-05-11T13:56:13.284Z,100014.55
2019-05-11T14:01:18.201Z,100021.50
2019-05-11T14:06:18.827Z,100021.20
2019-05-11T14:11:21.172Z,100018.65
2019-05-11T14:16:23.645Z,100022.97
2019-05-11T14:21:27.963Z,100037.44
2019-05-11T14:26:28.598Z,100060.15
2019-05-11T14:31:31.047Z,100081.50
2019-05-11T14:36:33.540Z,100110.55
2019-05-11T14:41:38.022Z,100134.73
2019-05-11T14:46:38.665Z,100162.06
2019-05-11T14:51:40.986Z,100157.73
2019-05-11T14:56:43.459Z,100155.28
2019-05-11T15:01:48.780Z,100157.95
2019-05-11T15:06:49.125Z,100156.05
2019-05-11T15:11:52.670Z,100155.27
2019-05-11T15:16:53.634Z,100160.55
2019-05-11T15:21:58.024Z,100184.19
2019-05-11T15:26:58.579Z,100184.77
2019-05-11T15:32:01.059Z,100193.17
2019-05-11T15:37:03.526Z,100218.27
2019-05-11T15:42:13.258Z,100238.70
2019-05-11T15:47:08.511Z,100259.88
2019-05-11T15:52:10.988Z,100259.61
2019-05-11T15:57:13.464Z,100286.27
2019-05-11T16:02:17.896Z,100294.52
2019-05-11T16:07:18.883Z,100316.59
2019-05-11T16:12:20.890Z,100330.19
2019-05-11T16:17:23.365Z,100347.18
2019-05-11T16:22:27.853Z,100381.93
2019-05-11T16:27:28.543Z,100385.89
2019-05-11T16:32:30.810Z,100396.61
2019-05-11T16:37:33.277Z,100397.80
2019-05-11T16:42:35.741Z,100416.70
2019-05-11T16:47:39.088Z,100434.34
2019-05-11T16:52:40.726Z,100447.00
2019-05-11T16:57:43.213Z,100454.34
2019-05-11T17:02:45.703Z,100459.06
2019-05-11T17:07:48.498Z,100465.38
2019-05-11T17:12:50.619Z,100484.39
2019-05-11T17:17:53.078Z,100495.38
2019-05-11T17:22:55.548Z,100503.61
2019-05-11T17:27:58.820Z,100516.77
2019-05-11T17:33:00.483Z,100535.23
2019-05-11T17:38:02.942Z,100547.77
2019-05-11T17:43:05.437Z,100572.35
2019-05-11T17:48:08.515Z,100583.64
2019-05-11T17:53:10.347Z,100599.95
2019-05-11T17:58:12.816Z,100614.10
2019-05-11T18:03:15.291Z,100646.94
2019-05-11T18:08:18.775Z,100660.84
2019-05-11T18:13:20.221Z,100689.82
2019-05-11T18:18:24.165Z,100711.09
2019-05-11T18:23:25.165Z,100728.54
2019-05-11T18:28:29.019Z,100740.15
2019-05-11T18:33:30.123Z,100753.38
2019-05-11T18:38:32.609Z,100759.30
2019-05-11T18:43:35.082Z,100766.75
2019-05-11T18:48:38.116Z,100774.09
2019-05-11T18:53:40.020Z,100778.81
2019-05-11T18:58:42.511Z,100790.09
2019-05-11T19:03:44.996Z,100809.28
2019-05-11T19:08:47.924Z,100817.47
2019-05-11T19:13:49.996Z,100834.13
2019-05-11T19:18:52.468Z,100847.37
2019-05-11T19:23:54.962Z,100859.24
2019-05-11T19:28:57.845Z,100864.81
2019-05-11T19:33:59.918Z,100871.04
2019-05-11T19:39:02.394Z,100880.85
2019-05-11T19:44:04.883Z,100898.80
2019-05-11T19:49:08.596Z,100910.86
2019-05-11T19:54:09.843Z,100921.25
2019-05-11T19:59:12.428Z,100945.80
2019-05-11T20:04:14.923Z,100952.64
2019-05-11T20:09:19.115Z,100959.27
2019-05-11T20:14:19.876Z,100973.06
2019-05-11T20:19:22.331Z,100984.27
2019-05-11T20:24:25.256Z,100993.59
2019-05-11T20:29:27.772Z,100995.82
2019-05-11T20:34:29.844Z,101009.67
2019-05-11T20:39:32.204Z,101011.00
2019-05-11T20:44:34.675Z,101029.01
2019-05-11T20:49:38.652Z,101035.30
2019-05-11T20:54:39.641Z,101039.42
2019-05-11T20:59:44.204Z,101046.61
2019-05-11T21:04:49.014Z,101052.46
2019-05-11T21:09:49.130Z,101041.20
2019-05-11T21:14:51.604Z,101044.16
2019-05-11T21:19:54.070Z,101067.28
2019-05-11T21:24:58.208Z,101066.78
2019-05-11T21:29:59.024Z,101064.68
2019-05-11T21:35:01.528Z,101076.27
2019-05-11T21:40:03.989Z,101087.66
2019-05-11T21:45:08.407Z,101096.30
2019-05-11T21:50:08.953Z,101098.48
2019-05-11T21:55:11.433Z,101110.75
2019-05-11T22:00:13.908Z,101123.70
2019-05-11T22:05:18.318Z,101128.03
2019-05-11T22:10:18.868Z,101127.17
2019-05-11T22:15:21.399Z,101147.64
2019-05-11T22:20:23.863Z,101164.45
2019-05-11T22:25:28.549Z,101172.84
2019-05-11T22:30:28.793Z,101172.80
2019-05-11T22:35:31.253Z,101179.70
2019-05-11T22:40:33.739Z,101175.47
2019-05-11T22:45:38.268Z,101187.00
2019-05-11T22:50:38.686Z,101194.98
2019-05-11T22:55:41.147Z,101205.06
2019-05-11T23:00:43.636Z,101201.42
2019-05-11T23:05:48.765Z,101221.38
2019-05-11T23:10:51.250Z,101225.23
2019-05-11T23:15:53.727Z,101228.88
2019-05-11T23:20:58.215Z,101233.36
2019-05-11T23:25:58.715Z,101232.65
2019-05-11T23:31:01.126Z,101246.03
2019-05-11T23:36:03.605Z,101252.28
2019-05-11T23:41:08.225Z,101247.63
2019-05-11T23:46:08.538Z,101247.69
2019-05-11T23:51:11.017Z,101247.63
2019-05-11T23:56:13.478Z,101251.26
